sensor_id;sensor_type;location;lat;lon;timestamp;temperature;humidity
12761;DHT22;6444;49.742;6.114;2022-10-17T00:01:53;16.00;99.90
12761;DHT22;6444;49.742;6.114;2022-10-17T00:04:20;15.90;99.90
12761;DHT22;6444;49.742;6.114;2022-10-17T00:06:46;15.70;99.90
12761;DHT22;6444;49.742;6.114;2022-10-17T00:09:13;15.60;99.90
12761;DHT22;6444;49.742;6.114;2022-10-17T00:11:39;15.70;99.90
12761;DHT22;6444;49.742;6.114;2022-10-17T00:14:07;15.70;99.90
12761;DHT22;6444;49.742;6.114;2022-10-17T00:16:34;15.60;99.90
12761;DHT22;6444;49.742;6.114;2022-10-17T00:19:00;15.60;99.90
12761;DHT22;6444;49.742;6.114;2022-10-17T00:21:27;15.60;99.90
12761;DHT22;6444;49.742;6.114;2022-10-17T00:23:53;15.70;99.90
12761;DHT22;6444;49.742;6.114;2022-10-17T00:26:20;15.80;99.90
12761;DHT22;6444;49.742;6.114;2022-10-17T00:28:47;15.80;99.90
12761;DHT22;6444;49.742;6.114;2022-10-17T00:31:15;15.90;99.90
12761;DHT22;6444;49.742;6.114;2022-10-17T00:33:40;15.80;99.90
12761;DHT22;6444;49.742;6.114;2022-10-17T00:36:08;15.80;99.90
12761;DHT22;6444;49.742;6.114;2022-10-17T00:38:33;15.70;99.90
12761;DHT22;6444;49.742;6.114;2022-10-17T00:41:00;15.60;99.90
12761;DHT22;6444;49.742;6.114;2022-10-17T00:43:27;15.50;99.90
12761;DHT22;6444;49.742;6.114;2022-10-17T00:45:54;15.40;99.90
12761;DHT22;6444;49.742;6.114;2022-10-17T00:48:21;15.50;99.90
12761;DHT22;6444;49.742;6.114;2022-10-17T00:50:47;15.60;99.90
12761;DHT22;6444;49.742;6.114;2022-10-17T00:53:14;15.50;99.90
12761;DHT22;6444;49.742;6.114;2022-10-17T00:55:50;15.50;99.90
12761;DHT22;6444;49.742;6.114;2022-10-17T00:58:16;15.40;99.90
12761;DHT22;6444;49.742;6.114;2022-10-17T01:00:43;15.40;99.90
12761;DHT22;6444;49.742;6.114;2022-10-17T01:03:10;15.30;99.90
12761;DHT22;6444;49.742;6.114;2022-10-17T01:05:36;15.30;99.90
12761;DHT22;6444;49.742;6.114;2022-10-17T01:08:03;15.30;99.90
12761;DHT22;6444;49.742;6.114;2022-10-17T01:10:32;15.30;99.90
12761;DHT22;6444;49.742;6.114;2022-10-17T01:15:38;15.20;99.90
12761;DHT22;6444;49.742;6.114;2022-10-17T01:20:59;15.10;99.90
12761;DHT22;6444;49.742;6.114;2022-10-17T01:23:44;15.10;99.90
12761;DHT22;6444;49.742;6.114;2022-10-17T01:26:15;15.00;99.90
12761;DHT22;6444;49.742;6.114;2022-10-17T01:28:59;14.50;99.90
12761;DHT22;6444;49.742;6.114;2022-10-17T01:32:03;14.80;99.90
12761;DHT22;6444;49.742;6.114;2022-10-17T01:33:57;14.90;99.90
12761;DHT22;6444;49.742;6.114;2022-10-17T01:36:49;15.00;99.90
12761;DHT22;6444;49.742;6.114;2022-10-17T01:41:51;14.80;99.90
12761;DHT22;6444;49.742;6.114;2022-10-17T01:46:52;14.90;99.90
12761;DHT22;6444;49.742;6.114;2022-10-17T01:49:19;14.70;99.90
12761;DHT22;6444;49.742;6.114;2022-10-17T01:51:48;14.60;99.90
12761;DHT22;6444;49.742;6.114;2022-10-17T01:54:30;14.80;99.90
12761;DHT22;6444;49.742;6.114;2022-10-17T01:56:44;14.80;99.90
12761;DHT22;6444;49.742;6.114;2022-10-17T01:59:15;14.90;99.90
12761;DHT22;6444;49.742;6.114;2022-10-17T02:01:41;15.10;99.90
12761;DHT22;6444;49.742;6.114;2022-10-17T02:04:08;15.00;99.90
12761;DHT22;6444;49.742;6.114;2022-10-17T02:06:35;15.00;99.90
12761;DHT22;6444;49.742;6.114;2022-10-17T02:09:13;15.00;99.90
12761;DHT22;6444;49.742;6.114;2022-10-17T02:11:27;15.10;99.90
12761;DHT22;6444;49.742;6.114;2022-10-17T02:17:07;15.10;99.90
12761;DHT22;6444;49.742;6.114;2022-10-17T02:19:56;14.80;99.90
12761;DHT22;6444;49.742;6.114;2022-10-17T02:24:49;13.90;99.90
12761;DHT22;6444;49.742;6.114;2022-10-17T02:27:16;13.80;99.90
12761;DHT22;6444;49.742;6.114;2022-10-17T02:29:47;14.10;99.90
12761;DHT22;6444;49.742;6.114;2022-10-17T02:32:16;14.40;99.90
12761;DHT22;6444;49.742;6.114;2022-10-17T02:34:41;14.40;99.90
12761;DHT22;6444;49.742;6.114;2022-10-17T02:37:07;14.60;99.90
12761;DHT22;6444;49.742;6.114;2022-10-17T02:39:34;14.80;99.90
12761;DHT22;6444;49.742;6.114;2022-10-17T02:42:02;14.40;99.90
12761;DHT22;6444;49.742;6.114;2022-10-17T02:44:28;14.30;99.90
12761;DHT22;6444;49.742;6.114;2022-10-17T02:47:02;14.30;99.90
12761;DHT22;6444;49.742;6.114;2022-10-17T02:49:29;14.50;99.90
12761;DHT22;6444;49.742;6.114;2022-10-17T02:54:35;14.40;99.90
12761;DHT22;6444;49.742;6.114;2022-10-17T02:57:21;14.40;99.90
12761;DHT22;6444;49.742;6.114;2022-10-17T02:59:45;14.40;99.90
12761;DHT22;6444;49.742;6.114;2022-10-17T03:02:12;14.30;99.90
12761;DHT22;6444;49.742;6.114;2022-10-17T03:04:41;14.40;99.90
12761;DHT22;6444;49.742;6.114;2022-10-17T03:07:05;14.30;99.90
12761;DHT22;6444;49.742;6.114;2022-10-17T03:09:31;14.40;99.90
12761;DHT22;6444;49.742;6.114;2022-10-17T03:11:58;14.50;99.90
12761;DHT22;6444;49.742;6.114;2022-10-17T03:14:26;14.30;99.90
12761;DHT22;6444;49.742;6.114;2022-10-17T03:16:52;14.30;99.90
12761;DHT22;6444;49.742;6.114;2022-10-17T03:19:19;14.40;99.90
12761;DHT22;6444;49.742;6.114;2022-10-17T03:21:45;14.40;99.90
12761;DHT22;6444;49.742;6.114;2022-10-17T03:26:50;14.40;99.90
12761;DHT22;6444;49.742;6.114;2022-10-17T03:29:17;14.40;99.90
12761;DHT22;6444;49.742;6.114;2022-10-17T03:31:43;14.50;99.90
12761;DHT22;6444;49.742;6.114;2022-10-17T03:34:10;14.40;99.90
12761;DHT22;6444;49.742;6.114;2022-10-17T03:36:37;14.40;99.90
12761;DHT22;6444;49.742;6.114;2022-10-17T03:39:03;14.40;99.90
12761;DHT22;6444;49.742;6.114;2022-10-17T03:41:30;14.40;99.90
12761;DHT22;6444;49.742;6.114;2022-10-17T03:43:56;14.40;99.90
12761;DHT22;6444;49.742;6.114;2022-10-17T03:46:23;14.30;99.90
12761;DHT22;6444;49.742;6.114;2022-10-17T03:48:50;14.30;99.90
12761;DHT22;6444;49.742;6.114;2022-10-17T03:51:16;14.30;99.90
12761;DHT22;6444;49.742;6.114;2022-10-17T03:53:43;14.10;99.90
12761;DHT22;6444;49.742;6.114;2022-10-17T03:56:14;13.70;99.90
12761;DHT22;6444;49.742;6.114;2022-10-17T03:58:39;13.50;99.90
12761;DHT22;6444;49.742;6.114;2022-10-17T04:01:06;13.50;99.90
12761;DHT22;6444;49.742;6.114;2022-10-17T04:03:33;14.20;99.90
12761;DHT22;6444;49.742;6.114;2022-10-17T04:06:00;14.10;99.90
12761;DHT22;6444;49.742;6.114;2022-10-17T04:08:27;14.40;99.90
12761;DHT22;6444;49.742;6.114;2022-10-17T04:10:57;13.90;99.90
12761;DHT22;6444;49.742;6.114;2022-10-17T04:13:23;14.10;99.90
12761;DHT22;6444;49.742;6.114;2022-10-17T04:16:00;14.30;99.90
12761;DHT22;6444;49.742;6.114;2022-10-17T04:18:25;14.00;99.90
12761;DHT22;6444;49.742;6.114;2022-10-17T04:20:52;13.60;99.90
12761;DHT22;6444;49.742;6.114;2022-10-17T04:23:19;13.80;99.90
12761;DHT22;6444;49.742;6.114;2022-10-17T04:25:45;13.70;99.90
12761;DHT22;6444;49.742;6.114;2022-10-17T04:28:12;13.60;99.90
12761;DHT22;6444;49.742;6.114;2022-10-17T04:30:38;13.50;99.90
12761;DHT22;6444;49.742;6.114;2022-10-17T04:33:05;13.80;99.90
12761;DHT22;6444;49.742;6.114;2022-10-17T04:35:32;13.70;99.90
12761;DHT22;6444;49.742;6.114;2022-10-17T04:37:58;13.50;99.90
12761;DHT22;6444;49.742;6.114;2022-10-17T04:40:25;13.70;99.90
12761;DHT22;6444;49.742;6.114;2022-10-17T04:42:52;14.40;99.90
12761;DHT22;6444;49.742;6.114;2022-10-17T04:45:18;15.10;99.90
12761;DHT22;6444;49.742;6.114;2022-10-17T04:47:45;15.40;99.90
12761;DHT22;6444;49.742;6.114;2022-10-17T04:50:11;15.50;99.90
12761;DHT22;6444;49.742;6.114;2022-10-17T04:52:38;15.50;99.90
12761;DHT22;6444;49.742;6.114;2022-10-17T04:55:05;15.40;99.90
12761;DHT22;6444;49.742;6.114;2022-10-17T04:57:35;15.30;99.90
12761;DHT22;6444;49.742;6.114;2022-10-17T05:00:02;15.20;99.90
12761;DHT22;6444;49.742;6.114;2022-10-17T05:02:28;15.10;99.90
12761;DHT22;6444;49.742;6.114;2022-10-17T05:04:56;15.00;99.90
12761;DHT22;6444;49.742;6.114;2022-10-17T05:07:22;14.90;99.90
12761;DHT22;6444;49.742;6.114;2022-10-17T05:09:49;14.90;99.90
12761;DHT22;6444;49.742;6.114;2022-10-17T05:12:16;14.90;99.90
12761;DHT22;6444;49.742;6.114;2022-10-17T05:14:42;14.90;99.90
12761;DHT22;6444;49.742;6.114;2022-10-17T05:17:09;14.80;99.90
12761;DHT22;6444;49.742;6.114;2022-10-17T05:19:35;14.70;99.90
12761;DHT22;6444;49.742;6.114;2022-10-17T05:22:02;14.60;99.90
12761;DHT22;6444;49.742;6.114;2022-10-17T05:24:29;14.70;99.90
12761;DHT22;6444;49.742;6.114;2022-10-17T05:26:56;14.40;99.90
12761;DHT22;6444;49.742;6.114;2022-10-17T05:29:23;14.30;99.90
12761;DHT22;6444;49.742;6.114;2022-10-17T05:31:49;14.60;99.90
12761;DHT22;6444;49.742;6.114;2022-10-17T05:34:16;14.60;99.90
12761;DHT22;6444;49.742;6.114;2022-10-17T05:36:43;14.70;99.90
12761;DHT22;6444;49.742;6.114;2022-10-17T05:39:10;15.00;99.90
12761;DHT22;6444;49.742;6.114;2022-10-17T05:41:37;15.20;99.90
12761;DHT22;6444;49.742;6.114;2022-10-17T05:44:03;15.20;99.90
12761;DHT22;6444;49.742;6.114;2022-10-17T05:46:30;15.00;99.90
12761;DHT22;6444;49.742;6.114;2022-10-17T05:48:56;15.20;99.90
12761;DHT22;6444;49.742;6.114;2022-10-17T05:51:23;15.40;99.90
12761;DHT22;6444;49.742;6.114;2022-10-17T05:53:50;15.40;99.90
12761;DHT22;6444;49.742;6.114;2022-10-17T05:56:16;15.50;99.90
12761;DHT22;6444;49.742;6.114;2022-10-17T05:58:43;15.70;99.90
12761;DHT22;6444;49.742;6.114;2022-10-17T06:01:10;15.90;99.90
12761;DHT22;6444;49.742;6.114;2022-10-17T06:03:37;15.20;99.90
12761;DHT22;6444;49.742;6.114;2022-10-17T06:06:04;15.10;99.90
12761;DHT22;6444;49.742;6.114;2022-10-17T06:08:30;15.40;99.90
12761;DHT22;6444;49.742;6.114;2022-10-17T06:10:57;15.60;99.90
12761;DHT22;6444;49.742;6.114;2022-10-17T06:13:24;15.50;99.90
12761;DHT22;6444;49.742;6.114;2022-10-17T06:15:50;15.80;99.90
12761;DHT22;6444;49.742;6.114;2022-10-17T06:18:17;16.00;99.90
12761;DHT22;6444;49.742;6.114;2022-10-17T06:20:43;15.90;99.90
12761;DHT22;6444;49.742;6.114;2022-10-17T06:23:10;15.60;99.90
12761;DHT22;6444;49.742;6.114;2022-10-17T06:25:37;15.30;99.90
12761;DHT22;6444;49.742;6.114;2022-10-17T06:28:03;15.20;99.90
12761;DHT22;6444;49.742;6.114;2022-10-17T06:30:30;15.40;99.90
12761;DHT22;6444;49.742;6.114;2022-10-17T06:32:57;15.60;99.90
12761;DHT22;6444;49.742;6.114;2022-10-17T06:35:23;15.40;99.90
12761;DHT22;6444;49.742;6.114;2022-10-17T06:37:50;15.60;99.90
12761;DHT22;6444;49.742;6.114;2022-10-17T06:40:17;16.20;99.90
12761;DHT22;6444;49.742;6.114;2022-10-17T06:42:47;16.50;99.90
12761;DHT22;6444;49.742;6.114;2022-10-17T06:45:14;16.50;99.90
12761;DHT22;6444;49.742;6.114;2022-10-17T06:47:40;16.50;99.90
12761;DHT22;6444;49.742;6.114;2022-10-17T06:50:07;16.80;99.90
12761;DHT22;6444;49.742;6.114;2022-10-17T06:52:34;16.40;99.90
12761;DHT22;6444;49.742;6.114;2022-10-17T06:55:01;16.40;99.90
12761;DHT22;6444;49.742;6.114;2022-10-17T06:57:28;16.30;99.90
12761;DHT22;6444;49.742;6.114;2022-10-17T06:59:54;16.60;99.90
12761;DHT22;6444;49.742;6.114;2022-10-17T07:02:21;16.80;99.90
12761;DHT22;6444;49.742;6.114;2022-10-17T07:04:47;16.40;99.90
12761;DHT22;6444;49.742;6.114;2022-10-17T07:07:14;16.40;99.90
12761;DHT22;6444;49.742;6.114;2022-10-17T07:09:41;17.10;99.90
12761;DHT22;6444;49.742;6.114;2022-10-17T07:12:08;17.90;99.90
12761;DHT22;6444;49.742;6.114;2022-10-17T07:14:35;17.90;99.90
12761;DHT22;6444;49.742;6.114;2022-10-17T07:17:01;18.10;99.90
12761;DHT22;6444;49.742;6.114;2022-10-17T07:19:28;18.30;99.90
12761;DHT22;6444;49.742;6.114;2022-10-17T07:21:55;18.50;99.90
12761;DHT22;6444;49.742;6.114;2022-10-17T07:24:21;18.30;99.90
12761;DHT22;6444;49.742;6.114;2022-10-17T07:26:48;18.00;99.90
12761;DHT22;6444;49.742;6.114;2022-10-17T07:29:15;17.80;99.90
12761;DHT22;6444;49.742;6.114;2022-10-17T07:31:41;17.40;99.90
12761;DHT22;6444;49.742;6.114;2022-10-17T07:34:08;17.30;99.90
12761;DHT22;6444;49.742;6.114;2022-10-17T07:36:34;17.20;99.90
12761;DHT22;6444;49.742;6.114;2022-10-17T07:39:01;17.20;99.90
12761;DHT22;6444;49.742;6.114;2022-10-17T07:41:28;16.90;99.90
12761;DHT22;6444;49.742;6.114;2022-10-17T07:43:54;16.70;99.90
12761;DHT22;6444;49.742;6.114;2022-10-17T07:46:21;17.20;99.90
12761;DHT22;6444;49.742;6.114;2022-10-17T07:48:48;17.80;99.90
12761;DHT22;6444;49.742;6.114;2022-10-17T07:51:14;18.10;99.90
12761;DHT22;6444;49.742;6.114;2022-10-17T07:53:41;17.90;99.90
12761;DHT22;6444;49.742;6.114;2022-10-17T07:56:08;17.60;99.90
12761;DHT22;6444;49.742;6.114;2022-10-17T07:58:34;17.60;99.90
12761;DHT22;6444;49.742;6.114;2022-10-17T08:01:04;17.40;99.90
12761;DHT22;6444;49.742;6.114;2022-10-17T08:03:30;17.50;99.90
12761;DHT22;6444;49.742;6.114;2022-10-17T08:05:57;17.50;99.90
12761;DHT22;6444;49.742;6.114;2022-10-17T08:08:23;17.80;99.90
12761;DHT22;6444;49.742;6.114;2022-10-17T08:10:50;18.60;99.90
12761;DHT22;6444;49.742;6.114;2022-10-17T08:13:17;19.20;99.90
12761;DHT22;6444;49.742;6.114;2022-10-17T08:15:43;20.30;99.90
12761;DHT22;6444;49.742;6.114;2022-10-17T08:18:11;21.70;99.90
12761;DHT22;6444;49.742;6.114;2022-10-17T08:20:37;21.70;99.90
12761;DHT22;6444;49.742;6.114;2022-10-17T08:23:04;21.30;99.90
12761;DHT22;6444;49.742;6.114;2022-10-17T08:25:31;21.30;99.90
12761;DHT22;6444;49.742;6.114;2022-10-17T08:27:57;21.50;99.90
12761;DHT22;6444;49.742;6.114;2022-10-17T08:30:25;21.70;99.90
12761;DHT22;6444;49.742;6.114;2022-10-17T08:32:51;21.60;99.90
12761;DHT22;6444;49.742;6.114;2022-10-17T08:35:18;22.30;99.90
12761;DHT22;6444;49.742;6.114;2022-10-17T08:37:44;22.40;99.90
12761;DHT22;6444;49.742;6.114;2022-10-17T08:40:21;22.10;99.90
12761;DHT22;6444;49.742;6.114;2022-10-17T08:45:53;21.70;99.90
12761;DHT22;6444;49.742;6.114;2022-10-17T08:48:20;21.50;99.90
12761;DHT22;6444;49.742;6.114;2022-10-17T08:50:55;22.10;99.90
12761;DHT22;6444;49.742;6.114;2022-10-17T08:55:57;23.20;99.90
12761;DHT22;6444;49.742;6.114;2022-10-17T08:58:30;23.20;99.90
12761;DHT22;6444;49.742;6.114;2022-10-17T09:01:42;23.40;99.90
12761;DHT22;6444;49.742;6.114;2022-10-17T09:19:52;22.60;99.90
12761;DHT22;6444;49.742;6.114;2022-10-17T09:22:17;22.60;99.90
12761;DHT22;6444;49.742;6.114;2022-10-17T09:27:25;22.70;99.90
12761;DHT22;6444;49.742;6.114;2022-10-17T09:29:59;23.10;99.90
12761;DHT22;6444;49.742;6.114;2022-10-17T09:32:21;22.90;99.90
12761;DHT22;6444;49.742;6.114;2022-10-17T09:34:47;23.20;99.90
12761;DHT22;6444;49.742;6.114;2022-10-17T09:37:14;23.90;99.90
12761;DHT22;6444;49.742;6.114;2022-10-17T09:39:40;24.00;99.90
12761;DHT22;6444;49.742;6.114;2022-10-17T09:42:08;23.70;99.90
12761;DHT22;6444;49.742;6.114;2022-10-17T09:44:41;23.40;99.90
12761;DHT22;6444;49.742;6.114;2022-10-17T09:49:53;23.90;99.90
12761;DHT22;6444;49.742;6.114;2022-10-17T09:54:56;23.90;99.90
12761;DHT22;6444;49.742;6.114;2022-10-17T09:57:21;23.90;99.90
12761;DHT22;6444;49.742;6.114;2022-10-17T10:00:04;24.60;99.90
12761;DHT22;6444;49.742;6.114;2022-10-17T10:02:29;24.30;99.90
12761;DHT22;6444;49.742;6.114;2022-10-17T10:07:29;24.30;99.90
12761;DHT22;6444;49.742;6.114;2022-10-17T10:09:56;24.30;99.90
12761;DHT22;6444;49.742;6.114;2022-10-17T10:12:23;25.80;99.90
12761;DHT22;6444;49.742;6.114;2022-10-17T10:14:49;25.20;99.90
12761;DHT22;6444;49.742;6.114;2022-10-17T10:17:26;25.20;99.90
12761;DHT22;6444;49.742;6.114;2022-10-17T10:19:52;24.70;99.90
12761;DHT22;6444;49.742;6.114;2022-10-17T10:22:19;24.70;99.90
12761;DHT22;6444;49.742;6.114;2022-10-17T10:24:45;24.50;99.90
12761;DHT22;6444;49.742;6.114;2022-10-17T10:27:15;24.80;99.90
12761;DHT22;6444;49.742;6.114;2022-10-17T10:29:50;24.60;99.90
12761;DHT22;6444;49.742;6.114;2022-10-17T10:32:27;23.80;99.90
12761;DHT22;6444;49.742;6.114;2022-10-17T10:34:53;24.10;99.90
12761;DHT22;6444;49.742;6.114;2022-10-17T10:37:22;24.00;99.90
12761;DHT22;6444;49.742;6.114;2022-10-17T10:39:58;24.00;99.90
12761;DHT22;6444;49.742;6.114;2022-10-17T10:42:34;23.80;99.90
12761;DHT22;6444;49.742;6.114;2022-10-17T10:45:15;23.20;99.90
12761;DHT22;6444;49.742;6.114;2022-10-17T10:47:53;23.10;99.90
12761;DHT22;6444;49.742;6.114;2022-10-17T10:50:34;22.60;99.90
12761;DHT22;6444;49.742;6.114;2022-10-17T10:55:59;22.60;99.90
12761;DHT22;6444;49.742;6.114;2022-10-17T10:58:40;23.10;99.90
12761;DHT22;6444;49.742;6.114;2022-10-17T11:01:20;23.10;99.90
12761;DHT22;6444;49.742;6.114;2022-10-17T11:06:20;23.20;99.90
12761;DHT22;6444;49.742;6.114;2022-10-17T11:08:48;23.10;99.90
12761;DHT22;6444;49.742;6.114;2022-10-17T11:11:19;22.90;99.90
12761;DHT22;6444;49.742;6.114;2022-10-17T11:14:02;22.90;99.90
12761;DHT22;6444;49.742;6.114;2022-10-17T11:18:50;22.80;99.90
12761;DHT22;6444;49.742;6.114;2022-10-17T11:21:15;23.20;99.90
12761;DHT22;6444;49.742;6.114;2022-10-17T11:23:52;23.90;99.90
12761;DHT22;6444;49.742;6.114;2022-10-17T11:26:24;24.10;99.90
12761;DHT22;6444;49.742;6.114;2022-10-17T11:28:49;23.80;99.90
12761;DHT22;6444;49.742;6.114;2022-10-17T11:31:16;23.90;99.90
12761;DHT22;6444;49.742;6.114;2022-10-17T11:33:49;24.00;99.90
12761;DHT22;6444;49.742;6.114;2022-10-17T11:36:16;23.90;99.90
12761;DHT22;6444;49.742;6.114;2022-10-17T11:39:04;24.10;99.90
12761;DHT22;6444;49.742;6.114;2022-10-17T11:41:10;24.00;99.90
12761;DHT22;6444;49.742;6.114;2022-10-17T11:43:36;24.20;99.90
12761;DHT22;6444;49.742;6.114;2022-10-17T11:46:04;24.10;99.90
12761;DHT22;6444;49.742;6.114;2022-10-17T11:49:01;24.30;99.90
12761;DHT22;6444;49.742;6.114;2022-10-17T11:51:25;24.20;99.90
12761;DHT22;6444;49.742;6.114;2022-10-17T11:54:03;23.90;99.90
12761;DHT22;6444;49.742;6.114;2022-10-17T12:01:55;24.30;99.90
12761;DHT22;6444;49.742;6.114;2022-10-17T12:04:29;24.70;99.90
12761;DHT22;6444;49.742;6.114;2022-10-17T12:07:13;24.50;99.90
12761;DHT22;6444;49.742;6.114;2022-10-17T12:09:58;24.60;99.90
12761;DHT22;6444;49.742;6.114;2022-10-17T12:12:27;24.10;99.90
12761;DHT22;6444;49.742;6.114;2022-10-17T12:14:49;24.10;99.90
12761;DHT22;6444;49.742;6.114;2022-10-17T12:17:31;23.70;99.90
12761;DHT22;6444;49.742;6.114;2022-10-17T12:20:16;23.50;99.90
12761;DHT22;6444;49.742;6.114;2022-10-17T12:22:51;23.30;99.90
12761;DHT22;6444;49.742;6.114;2022-10-17T12:25:27;23.30;99.90
12761;DHT22;6444;49.742;6.114;2022-10-17T12:30:29;23.20;99.90
12761;DHT22;6444;49.742;6.114;2022-10-17T12:33:23;23.70;99.90
12761;DHT22;6444;49.742;6.114;2022-10-17T12:35:49;24.00;99.90
12761;DHT22;6444;49.742;6.114;2022-10-17T12:45:54;23.90;99.90
12761;DHT22;6444;49.742;6.114;2022-10-17T12:51:09;24.80;99.90
12761;DHT22;6444;49.742;6.114;2022-10-17T12:53:54;24.70;99.90
12761;DHT22;6444;49.742;6.114;2022-10-17T12:58:55;24.50;99.90
12761;DHT22;6444;49.742;6.114;2022-10-17T13:01:26;24.40;99.90
12761;DHT22;6444;49.742;6.114;2022-10-17T13:03:49;24.30;99.90
12761;DHT22;6444;49.742;6.114;2022-10-17T13:06:20;24.20;99.90
12761;DHT22;6444;49.742;6.114;2022-10-17T13:08:47;24.60;99.90
12761;DHT22;6444;49.742;6.114;2022-10-17T13:11:12;25.00;99.90
12761;DHT22;6444;49.742;6.114;2022-10-17T13:13:46;25.20;99.90
12761;DHT22;6444;49.742;6.114;2022-10-17T13:16:25;24.50;99.90
12761;DHT22;6444;49.742;6.114;2022-10-17T13:18:35;24.10;99.90
12761;DHT22;6444;49.742;6.114;2022-10-17T13:21:12;24.30;99.90
12761;DHT22;6444;49.742;6.114;2022-10-17T13:23:33;24.60;99.90
12761;DHT22;6444;49.742;6.114;2022-10-17T13:26:14;24.20;99.90
12761;DHT22;6444;49.742;6.114;2022-10-17T13:28:40;23.70;99.90
12761;DHT22;6444;49.742;6.114;2022-10-17T13:31:06;23.60;99.90
12761;DHT22;6444;49.742;6.114;2022-10-17T13:33:34;23.70;99.90
12761;DHT22;6444;49.742;6.114;2022-10-17T13:36:00;23.10;99.90
12761;DHT22;6444;49.742;6.114;2022-10-17T13:38:27;23.10;99.90
12761;DHT22;6444;49.742;6.114;2022-10-17T13:40:53;23.10;99.90
12761;DHT22;6444;49.742;6.114;2022-10-17T13:43:20;23.30;99.90
12761;DHT22;6444;49.742;6.114;2022-10-17T13:45:51;23.50;99.90
12761;DHT22;6444;49.742;6.114;2022-10-17T13:48:19;23.20;99.90
12761;DHT22;6444;49.742;6.114;2022-10-17T13:50:46;23.10;99.90
12761;DHT22;6444;49.742;6.114;2022-10-17T13:53:36;23.30;99.90
12761;DHT22;6444;49.742;6.114;2022-10-17T13:56:05;23.60;99.90
12761;DHT22;6444;49.742;6.114;2022-10-17T13:58:42;23.10;99.90
12761;DHT22;6444;49.742;6.114;2022-10-17T14:00:58;23.10;99.90
12761;DHT22;6444;49.742;6.114;2022-10-17T14:03:25;23.20;99.90
12761;DHT22;6444;49.742;6.114;2022-10-17T14:11:37;23.60;99.90
12761;DHT22;6444;49.742;6.114;2022-10-17T14:14:00;23.70;99.90
12761;DHT22;6444;49.742;6.114;2022-10-17T14:16:31;24.40;99.90
12761;DHT22;6444;49.742;6.114;2022-10-17T14:18:53;24.80;99.90
12761;DHT22;6444;49.742;6.114;2022-10-17T14:21:21;24.80;99.90
12761;DHT22;6444;49.742;6.114;2022-10-17T14:23:47;23.80;99.90
12761;DHT22;6444;49.742;6.114;2022-10-17T14:26:15;23.70;99.90
12761;DHT22;6444;49.742;6.114;2022-10-17T14:28:44;23.90;99.90
12761;DHT22;6444;49.742;6.114;2022-10-17T14:31:32;23.50;99.90
12761;DHT22;6444;49.742;6.114;2022-10-17T14:33:49;23.40;99.90
12761;DHT22;6444;49.742;6.114;2022-10-17T14:36:16;22.90;99.90
12761;DHT22;6444;49.742;6.114;2022-10-17T14:38:46;23.20;99.90
12761;DHT22;6444;49.742;6.114;2022-10-17T14:41:18;23.60;99.90
12761;DHT22;6444;49.742;6.114;2022-10-17T14:43:41;23.80;99.90
12761;DHT22;6444;49.742;6.114;2022-10-17T14:46:14;23.60;99.90
12761;DHT22;6444;49.742;6.114;2022-10-17T14:48:41;23.50;99.90
12761;DHT22;6444;49.742;6.114;2022-10-17T14:51:15;24.40;99.90
12761;DHT22;6444;49.742;6.114;2022-10-17T14:53:42;24.40;99.90
12761;DHT22;6444;49.742;6.114;2022-10-17T14:56:24;25.00;99.90
12761;DHT22;6444;49.742;6.114;2022-10-17T14:58:49;25.00;99.90
12761;DHT22;6444;49.742;6.114;2022-10-17T15:01:16;24.90;99.90
12761;DHT22;6444;49.742;6.114;2022-10-17T15:03:42;25.10;99.90
12761;DHT22;6444;49.742;6.114;2022-10-17T15:06:30;24.90;99.90
12761;DHT22;6444;49.742;6.114;2022-10-17T15:08:54;24.70;99.90
12761;DHT22;6444;49.742;6.114;2022-10-17T15:11:21;24.80;99.90
12761;DHT22;6444;49.742;6.114;2022-10-17T15:13:47;24.40;99.90
12761;DHT22;6444;49.742;6.114;2022-10-17T15:16:16;24.60;99.90
12761;DHT22;6444;49.742;6.114;2022-10-17T15:18:41;25.30;99.90
12761;DHT22;6444;49.742;6.114;2022-10-17T15:21:14;25.30;99.90
12761;DHT22;6444;49.742;6.114;2022-10-17T15:23:40;24.80;99.90
12761;DHT22;6444;49.742;6.114;2022-10-17T15:26:17;25.00;99.90
12761;DHT22;6444;49.742;6.114;2022-10-17T15:28:42;25.20;99.90
12761;DHT22;6444;49.742;6.114;2022-10-17T15:31:12;25.30;99.90
12761;DHT22;6444;49.742;6.114;2022-10-17T15:33:39;25.40;99.90
12761;DHT22;6444;49.742;6.114;2022-10-17T15:36:18;25.30;99.90
12761;DHT22;6444;49.742;6.114;2022-10-17T15:38:48;25.30;99.90
12761;DHT22;6444;49.742;6.114;2022-10-17T15:41:14;25.10;99.90
12761;DHT22;6444;49.742;6.114;2022-10-17T15:43:41;24.50;99.90
12761;DHT22;6444;49.742;6.114;2022-10-17T15:46:09;24.50;99.90
12761;DHT22;6444;49.742;6.114;2022-10-17T15:48:34;24.20;99.90
12761;DHT22;6444;49.742;6.114;2022-10-17T15:51:00;24.20;99.90
12761;DHT22;6444;49.742;6.114;2022-10-17T15:53:27;24.30;99.90
12761;DHT22;6444;49.742;6.114;2022-10-17T15:55:54;23.70;99.90
12761;DHT22;6444;49.742;6.114;2022-10-17T15:58:20;23.80;99.90
12761;DHT22;6444;49.742;6.114;2022-10-17T16:00:47;23.50;99.90
12761;DHT22;6444;49.742;6.114;2022-10-17T16:03:14;23.20;99.90
12761;DHT22;6444;49.742;6.114;2022-10-17T16:05:41;22.60;99.90
12761;DHT22;6444;49.742;6.114;2022-10-17T16:08:08;22.50;99.90
12761;DHT22;6444;49.742;6.114;2022-10-17T16:10:35;23.00;99.90
12761;DHT22;6444;49.742;6.114;2022-10-17T16:13:01;23.30;99.90
12761;DHT22;6444;49.742;6.114;2022-10-17T16:15:27;23.60;99.90
12761;DHT22;6444;49.742;6.114;2022-10-17T16:17:55;23.70;99.90
12761;DHT22;6444;49.742;6.114;2022-10-17T16:20:21;23.70;99.90
12761;DHT22;6444;49.742;6.114;2022-10-17T16:22:47;23.80;99.90
12761;DHT22;6444;49.742;6.114;2022-10-17T16:25:18;23.70;99.90
12761;DHT22;6444;49.742;6.114;2022-10-17T16:27:44;23.60;99.90
12761;DHT22;6444;49.742;6.114;2022-10-17T16:30:10;23.10;99.90
12761;DHT22;6444;49.742;6.114;2022-10-17T16:32:37;23.20;99.90
12761;DHT22;6444;49.742;6.114;2022-10-17T16:35:04;22.90;99.90
12761;DHT22;6444;49.742;6.114;2022-10-17T16:37:30;22.80;99.90
12761;DHT22;6444;49.742;6.114;2022-10-17T16:39:57;22.70;99.90
12761;DHT22;6444;49.742;6.114;2022-10-17T16:42:23;22.30;99.90
12761;DHT22;6444;49.742;6.114;2022-10-17T16:44:50;21.90;99.90
12761;DHT22;6444;49.742;6.114;2022-10-17T16:47:17;22.00;99.90
12761;DHT22;6444;49.742;6.114;2022-10-17T16:49:43;21.80;99.90
12761;DHT22;6444;49.742;6.114;2022-10-17T16:52:10;22.20;99.90
12761;DHT22;6444;49.742;6.114;2022-10-17T16:54:36;22.30;99.90
12761;DHT22;6444;49.742;6.114;2022-10-17T16:57:03;22.40;99.90
12761;DHT22;6444;49.742;6.114;2022-10-17T16:59:30;22.60;99.90
12761;DHT22;6444;49.742;6.114;2022-10-17T17:01:57;22.50;99.90
12761;DHT22;6444;49.742;6.114;2022-10-17T17:04:24;22.60;99.90
12761;DHT22;6444;49.742;6.114;2022-10-17T17:06:50;22.50;99.90
12761;DHT22;6444;49.742;6.114;2022-10-17T17:09:17;22.40;99.90
12761;DHT22;6444;49.742;6.114;2022-10-17T17:11:43;22.40;99.90
12761;DHT22;6444;49.742;6.114;2022-10-17T17:14:11;22.30;99.90
12761;DHT22;6444;49.742;6.114;2022-10-17T17:16:37;22.30;99.90
12761;DHT22;6444;49.742;6.114;2022-10-17T17:19:05;22.30;99.90
12761;DHT22;6444;49.742;6.114;2022-10-17T17:21:31;22.10;99.90